sensor_id;sensor_type;location;lat;lon;timestamp;P1;durP1;ratioP1;P2;durP2;ratioP2
19867;SDS011;10096;51.112;6.776;2024-03-25T00:00:29;12.23;;;4.77;;
19867;SDS011;10096;51.112;6.776;2024-03-25T00:02:55;16.50;;;4.80;;
19867;SDS011;10096;51.112;6.776;2024-03-25T00:05:23;13.43;;;5.47;;
19867;SDS011;10096;51.112;6.776;2024-03-25T00:07:50;13.10;;;4.70;;
19867;SDS011;10096;51.112;6.776;2024-03-25T00:10:18;14.87;;;5.20;;
19867;SDS011;10096;51.112;6.776;2024-03-25T00:12:56;11.97;;;5.03;;
19867;SDS011;10096;51.112;6.776;2024-03-25T00:15:23;11.47;;;4.87;;
19867;SDS011;10096;51.112;6.776;2024-03-25T00:17:51;10.90;;;5.00;;
19867;SDS011;10096;51.112;6.776;2024-03-25T00:20:18;9.57;;;4.53;;
19867;SDS011;10096;51.112;6.776;2024-03-25T00:22:44;14.37;;;5.63;;
19867;SDS011;10096;51.112;6.776;2024-03-25T00:25:16;11.40;;;5.87;;
19867;SDS011;10096;51.112;6.776;2024-03-25T00:27:42;11.37;;;6.20;;
19867;SDS011;10096;51.112;6.776;2024-03-25T00:30:12;11.87;;;6.00;;
19867;SDS011;10096;51.112;6.776;2024-03-25T00:32:38;13.77;;;6.60;;
19867;SDS011;10096;51.112;6.776;2024-03-25T00:35:06;10.10;;;5.83;;
19867;SDS011;10096;51.112;6.776;2024-03-25T00:37:36;13.80;;;6.07;;
19867;SDS011;10096;51.112;6.776;2024-03-25T00:40:05;17.83;;;6.67;;
19867;SDS011;10096;51.112;6.776;2024-03-25T00:42:38;15.23;;;6.30;;
19867;SDS011;10096;51.112;6.776;2024-03-25T00:45:13;12.30;;;6.00;;
19867;SDS011;10096;51.112;6.776;2024-03-25T00:47:40;12.83;;;5.73;;
19867;SDS011;10096;51.112;6.776;2024-03-25T00:50:07;11.37;;;5.50;;
19867;SDS011;10096;51.112;6.776;2024-03-25T00:52:40;14.47;;;5.93;;
19867;SDS011;10096;51.112;6.776;2024-03-25T00:55:10;12.50;;;5.60;;
19867;SDS011;10096;51.112;6.776;2024-03-25T00:57:36;12.77;;;6.30;;
19867;SDS011;10096;51.112;6.776;2024-03-25T01:00:10;17.87;;;6.73;;
19867;SDS011;10096;51.112;6.776;2024-03-25T01:02:54;11.97;;;6.80;;
19867;SDS011;10096;51.112;6.776;2024-03-25T01:05:22;15.43;;;5.60;;
19867;SDS011;10096;51.112;6.776;2024-03-25T01:07:49;14.53;;;5.93;;
19867;SDS011;10096;51.112;6.776;2024-03-25T01:10:16;16.30;;;7.23;;
19867;SDS011;10096;51.112;6.776;2024-03-25T01:12:44;12.57;;;5.73;;
19867;SDS011;10096;51.112;6.776;2024-03-25T01:15:14;16.90;;;6.10;;
19867;SDS011;10096;51.112;6.776;2024-03-25T01:17:44;13.13;;;5.57;;
19867;SDS011;10096;51.112;6.776;2024-03-25T01:20:12;15.20;;;6.13;;
19867;SDS011;10096;51.112;6.776;2024-03-25T01:22:39;15.60;;;6.77;;
19867;SDS011;10096;51.112;6.776;2024-03-25T01:25:10;17.57;;;5.90;;
19867;SDS011;10096;51.112;6.776;2024-03-25T01:27:38;14.57;;;6.03;;
19867;SDS011;10096;51.112;6.776;2024-03-25T01:30:07;10.50;;;5.50;;
19867;SDS011;10096;51.112;6.776;2024-03-25T01:32:35;12.03;;;5.10;;
19867;SDS011;10096;51.112;6.776;2024-03-25T01:35:08;15.83;;;5.70;;
19867;SDS011;10096;51.112;6.776;2024-03-25T01:37:38;20.87;;;6.17;;
19867;SDS011;10096;51.112;6.776;2024-03-25T01:40:06;12.37;;;6.23;;
19867;SDS011;10096;51.112;6.776;2024-03-25T01:42:34;17.30;;;5.90;;
19867;SDS011;10096;51.112;6.776;2024-03-25T01:45:06;11.23;;;5.77;;
19867;SDS011;10096;51.112;6.776;2024-03-25T01:47:36;17.83;;;7.77;;
19867;SDS011;10096;51.112;6.776;2024-03-25T01:50:05;17.07;;;7.17;;
19867;SDS011;10096;51.112;6.776;2024-03-25T01:52:34;13.57;;;6.13;;
19867;SDS011;10096;51.112;6.776;2024-03-25T01:55:04;15.43;;;5.60;;
19867;SDS011;10096;51.112;6.776;2024-03-25T01:57:36;14.30;;;6.17;;
19867;SDS011;10096;51.112;6.776;2024-03-25T02:00:04;15.43;;;6.07;;
19867;SDS011;10096;51.112;6.776;2024-03-25T02:02:34;11.70;;;5.63;;
19867;SDS011;10096;51.112;6.776;2024-03-25T02:05:06;15.87;;;6.00;;
19867;SDS011;10096;51.112;6.776;2024-03-25T02:07:37;12.90;;;4.77;;
19867;SDS011;10096;51.112;6.776;2024-03-25T02:10:07;13.67;;;6.20;;
19867;SDS011;10096;51.112;6.776;2024-03-25T02:12:35;14.87;;;5.63;;
19867;SDS011;10096;51.112;6.776;2024-03-25T02:15:01;16.60;;;5.67;;
19867;SDS011;10096;51.112;6.776;2024-03-25T02:17:33;11.83;;;5.37;;
19867;SDS011;10096;51.112;6.776;2024-03-25T02:20:00;13.53;;;4.93;;
19867;SDS011;10096;51.112;6.776;2024-03-25T02:22:28;15.77;;;5.53;;
19867;SDS011;10096;51.112;6.776;2024-03-25T02:24:57;13.30;;;5.50;;
19867;SDS011;10096;51.112;6.776;2024-03-25T02:27:28;14.43;;;5.87;;
19867;SDS011;10096;51.112;6.776;2024-03-25T02:32:28;12.67;;;5.67;;
19867;SDS011;10096;51.112;6.776;2024-03-25T02:34:55;14.37;;;5.00;;
19867;SDS011;10096;51.112;6.776;2024-03-25T02:37:23;13.20;;;5.50;;
19867;SDS011;10096;51.112;6.776;2024-03-25T02:39:53;16.17;;;6.13;;
19867;SDS011;10096;51.112;6.776;2024-03-25T02:42:24;16.13;;;5.27;;
19867;SDS011;10096;51.112;6.776;2024-03-25T02:44:55;11.97;;;5.70;;
19867;SDS011;10096;51.112;6.776;2024-03-25T02:47:22;13.87;;;5.67;;
19867;SDS011;10096;51.112;6.776;2024-03-25T02:49:51;12.57;;;5.13;;
19867;SDS011;10096;51.112;6.776;2024-03-25T02:52:24;14.17;;;5.30;;
19867;SDS011;10096;51.112;6.776;2024-03-25T02:54:51;17.17;;;5.83;;
19867;SDS011;10096;51.112;6.776;2024-03-25T02:57:21;12.00;;;5.20;;
19867;SDS011;10096;51.112;6.776;2024-03-25T02:59:49;15.83;;;6.03;;
19867;SDS011;10096;51.112;6.776;2024-03-25T03:02:18;11.67;;;5.27;;
19867;SDS011;10096;51.112;6.776;2024-03-25T03:07:22;16.30;;;6.20;;
19867;SDS011;10096;51.112;6.776;2024-03-25T03:09:49;12.70;;;5.53;;
19867;SDS011;10096;51.112;6.776;2024-03-25T03:12:18;13.17;;;5.30;;
19867;SDS011;10096;51.112;6.776;2024-03-25T03:14:47;13.30;;;5.60;;
19867;SDS011;10096;51.112;6.776;2024-03-25T03:17:13;20.10;;;6.03;;
19867;SDS011;10096;51.112;6.776;2024-03-25T03:19:42;16.10;;;6.60;;
19867;SDS011;10096;51.112;6.776;2024-03-25T03:22:09;14.47;;;8.53;;
19867;SDS011;10096;51.112;6.776;2024-03-25T03:24:43;18.07;;;6.87;;
19867;SDS011;10096;51.112;6.776;2024-03-25T03:27:09;13.83;;;5.50;;
19867;SDS011;10096;51.112;6.776;2024-03-25T03:29:38;16.40;;;5.23;;
19867;SDS011;10096;51.112;6.776;2024-03-25T03:32:05;14.90;;;6.20;;
19867;SDS011;10096;51.112;6.776;2024-03-25T03:34:33;14.03;;;5.30;;
19867;SDS011;10096;51.112;6.776;2024-03-25T03:37:02;15.57;;;5.23;;
19867;SDS011;10096;51.112;6.776;2024-03-25T03:39:30;16.23;;;5.80;;
19867;SDS011;10096;51.112;6.776;2024-03-25T03:41:56;12.17;;;4.90;;
19867;SDS011;10096;51.112;6.776;2024-03-25T03:44:24;19.10;;;6.37;;
19867;SDS011;10096;51.112;6.776;2024-03-25T03:46:50;15.10;;;6.70;;
19867;SDS011;10096;51.112;6.776;2024-03-25T03:49:18;18.63;;;6.03;;
19867;SDS011;10096;51.112;6.776;2024-03-25T03:51:52;13.90;;;6.13;;
19867;SDS011;10096;51.112;6.776;2024-03-25T03:54:22;13.00;;;5.30;;
19867;SDS011;10096;51.112;6.776;2024-03-25T03:56:50;12.73;;;5.30;;
19867;SDS011;10096;51.112;6.776;2024-03-25T03:59:20;13.30;;;5.03;;
19867;SDS011;10096;51.112;6.776;2024-03-25T04:01:46;16.27;;;6.43;;
19867;SDS011;10096;51.112;6.776;2024-03-25T04:04:17;19.27;;;5.77;;
19867;SDS011;10096;51.112;6.776;2024-03-25T04:06:44;12.63;;;5.63;;
19867;SDS011;10096;51.112;6.776;2024-03-25T04:09:12;17.63;;;6.57;;
19867;SDS011;10096;51.112;6.776;2024-03-25T04:11:40;13.80;;;6.10;;
19867;SDS011;10096;51.112;6.776;2024-03-25T04:14:07;18.27;;;6.53;;
19867;SDS011;10096;51.112;6.776;2024-03-25T04:16:33;12.80;;;6.17;;
19867;SDS011;10096;51.112;6.776;2024-03-25T04:19:03;13.10;;;5.93;;
19867;SDS011;10096;51.112;6.776;2024-03-25T04:21:29;13.37;;;5.80;;
19867;SDS011;10096;51.112;6.776;2024-03-25T04:23:56;20.37;;;6.10;;
19867;SDS011;10096;51.112;6.776;2024-03-25T04:26:23;17.70;;;6.77;;
19867;SDS011;10096;51.112;6.776;2024-03-25T04:28:51;15.50;;;7.00;;
19867;SDS011;10096;51.112;6.776;2024-03-25T04:31:18;16.93;;;5.70;;
19867;SDS011;10096;51.112;6.776;2024-03-25T04:33:49;17.23;;;7.43;;
19867;SDS011;10096;51.112;6.776;2024-03-25T04:36:17;11.10;;;7.00;;
19867;SDS011;10096;51.112;6.776;2024-03-25T04:38:55;15.67;;;6.27;;
19867;SDS011;10096;51.112;6.776;2024-03-25T04:41:22;17.03;;;6.80;;
19867;SDS011;10096;51.112;6.776;2024-03-25T04:43:55;15.67;;;6.10;;
19867;SDS011;10096;51.112;6.776;2024-03-25T04:46:22;12.87;;;6.40;;
19867;SDS011;10096;51.112;6.776;2024-03-25T04:48:49;13.13;;;6.23;;
19867;SDS011;10096;51.112;6.776;2024-03-25T04:51:27;18.83;;;7.93;;
19867;SDS011;10096;51.112;6.776;2024-03-25T04:54:00;14.20;;;5.87;;
19867;SDS011;10096;51.112;6.776;2024-03-25T04:56:28;17.53;;;6.80;;
19867;SDS011;10096;51.112;6.776;2024-03-25T04:59:01;14.03;;;6.20;;
19867;SDS011;10096;51.112;6.776;2024-03-25T05:01:27;13.10;;;6.87;;
19867;SDS011;10096;51.112;6.776;2024-03-25T05:03:53;16.20;;;6.27;;
19867;SDS011;10096;51.112;6.776;2024-03-25T05:06:21;19.70;;;6.60;;
19867;SDS011;10096;51.112;6.776;2024-03-25T05:08:51;15.80;;;6.70;;
19867;SDS011;10096;51.112;6.776;2024-03-25T05:11:22;14.50;;;6.60;;
19867;SDS011;10096;51.112;6.776;2024-03-25T05:13:48;18.40;;;6.37;;
19867;SDS011;10096;51.112;6.776;2024-03-25T05:16:19;17.37;;;6.77;;
19867;SDS011;10096;51.112;6.776;2024-03-25T05:18:48;17.77;;;6.53;;
19867;SDS011;10096;51.112;6.776;2024-03-25T05:21:14;21.23;;;7.10;;
19867;SDS011;10096;51.112;6.776;2024-03-25T05:23:42;15.33;;;7.07;;
19867;SDS011;10096;51.112;6.776;2024-03-25T05:26:08;14.63;;;6.63;;
19867;SDS011;10096;51.112;6.776;2024-03-25T05:28:35;20.47;;;7.23;;
19867;SDS011;10096;51.112;6.776;2024-03-25T05:31:05;21.30;;;6.97;;
19867;SDS011;10096;51.112;6.776;2024-03-25T05:33:33;14.13;;;6.93;;
19867;SDS011;10096;51.112;6.776;2024-03-25T05:36:03;14.77;;;6.37;;
19867;SDS011;10096;51.112;6.776;2024-03-25T05:38:33;15.17;;;7.30;;
19867;SDS011;10096;51.112;6.776;2024-03-25T05:40:59;14.00;;;7.57;;
19867;SDS011;10096;51.112;6.776;2024-03-25T05:43:26;15.37;;;7.20;;
19867;SDS011;10096;51.112;6.776;2024-03-25T05:45:54;17.87;;;7.23;;
19867;SDS011;10096;51.112;6.776;2024-03-25T05:48:26;19.43;;;8.50;;
19867;SDS011;10096;51.112;6.776;2024-03-25T05:51:01;15.17;;;7.00;;
19867;SDS011;10096;51.112;6.776;2024-03-25T05:53:27;18.13;;;7.83;;
19867;SDS011;10096;51.112;6.776;2024-03-25T05:55:54;16.87;;;7.53;;
19867;SDS011;10096;51.112;6.776;2024-03-25T05:58:20;18.63;;;6.40;;
19867;SDS011;10096;51.112;6.776;2024-03-25T06:00:56;12.73;;;5.73;;
19867;SDS011;10096;51.112;6.776;2024-03-25T06:03:23;15.03;;;6.10;;
19867;SDS011;10096;51.112;6.776;2024-03-25T06:05:51;13.47;;;5.30;;
19867;SDS011;10096;51.112;6.776;2024-03-25T06:08:18;16.00;;;6.43;;
19867;SDS011;10096;51.112;6.776;2024-03-25T06:10:46;11.37;;;6.20;;
19867;SDS011;10096;51.112;6.776;2024-03-25T06:13:12;15.43;;;5.63;;
19867;SDS011;10096;51.112;6.776;2024-03-25T06:15:38;11.40;;;5.10;;
19867;SDS011;10096;51.112;6.776;2024-03-25T06:18:07;11.97;;;5.60;;
19867;SDS011;10096;51.112;6.776;2024-03-25T06:20:37;10.43;;;4.95;;
19867;SDS011;10096;51.112;6.776;2024-03-25T06:23:03;13.93;;;5.80;;
19867;SDS011;10096;51.112;6.776;2024-03-25T06:25:33;11.60;;;5.18;;
19867;SDS011;10096;51.112;6.776;2024-03-25T06:28:00;10.70;;;5.72;;
19867;SDS011;10096;51.112;6.776;2024-03-25T06:30:28;10.55;;;5.65;;
19867;SDS011;10096;51.112;6.776;2024-03-25T06:33:13;16.33;;;6.00;;
19867;SDS011;10096;51.112;6.776;2024-03-25T06:35:57;12.50;;;7.72;;
19867;SDS011;10096;51.112;6.776;2024-03-25T06:38:31;15.75;;;10.25;;
19867;SDS011;10096;51.112;6.776;2024-03-25T06:40:58;12.15;;;7.55;;
19867;SDS011;10096;51.112;6.776;2024-03-25T06:43:26;13.95;;;7.35;;
19867;SDS011;10096;51.112;6.776;2024-03-25T06:45:52;12.65;;;6.85;;
19867;SDS011;10096;51.112;6.776;2024-03-25T06:48:18;10.70;;;5.88;;
19867;SDS011;10096;51.112;6.776;2024-03-25T06:50:53;10.23;;;5.95;;
19867;SDS011;10096;51.112;6.776;2024-03-25T06:53:23;9.73;;;5.70;;
19867;SDS011;10096;51.112;6.776;2024-03-25T06:55:52;10.88;;;5.70;;
19867;SDS011;10096;51.112;6.776;2024-03-25T06:58:24;8.85;;;6.35;;
19867;SDS011;10096;51.112;6.776;2024-03-25T07:00:51;10.48;;;5.55;;
19867;SDS011;10096;51.112;6.776;2024-03-25T07:03:25;9.07;;;5.00;;
19867;SDS011;10096;51.112;6.776;2024-03-25T07:05:52;10.15;;;4.80;;
19867;SDS011;10096;51.112;6.776;2024-03-25T07:08:19;13.88;;;6.10;;
19867;SDS011;10096;51.112;6.776;2024-03-25T07:10:45;9.15;;;5.80;;
19867;SDS011;10096;51.112;6.776;2024-03-25T07:13:11;8.13;;;4.68;;
19867;SDS011;10096;51.112;6.776;2024-03-25T07:15:39;11.25;;;5.45;;
19867;SDS011;10096;51.112;6.776;2024-03-25T07:18:09;9.60;;;5.55;;
19867;SDS011;10096;51.112;6.776;2024-03-25T07:20:36;8.85;;;5.95;;
19867;SDS011;10096;51.112;6.776;2024-03-25T07:23:03;12.88;;;6.05;;
19867;SDS011;10096;51.112;6.776;2024-03-25T07:25:29;10.13;;;5.47;;
19867;SDS011;10096;51.112;6.776;2024-03-25T07:27:55;10.93;;;6.00;;
19867;SDS011;10096;51.112;6.776;2024-03-25T07:30:22;11.00;;;6.22;;
19867;SDS011;10096;51.112;6.776;2024-03-25T07:32:53;11.00;;;6.00;;
19867;SDS011;10096;51.112;6.776;2024-03-25T07:35:23;11.55;;;6.72;;
19867;SDS011;10096;51.112;6.776;2024-03-25T07:37:51;12.40;;;6.85;;
19867;SDS011;10096;51.112;6.776;2024-03-25T07:40:17;13.07;;;6.15;;
19867;SDS011;10096;51.112;6.776;2024-03-25T07:42:43;18.20;;;8.45;;
19867;SDS011;10096;51.112;6.776;2024-03-25T07:45:10;9.90;;;5.82;;
19867;SDS011;10096;51.112;6.776;2024-03-25T07:47:37;9.30;;;5.82;;
19867;SDS011;10096;51.112;6.776;2024-03-25T07:50:11;10.98;;;5.93;;
19867;SDS011;10096;51.112;6.776;2024-03-25T07:52:43;11.35;;;5.72;;
19867;SDS011;10096;51.112;6.776;2024-03-25T07:55:11;10.43;;;5.20;;
19867;SDS011;10096;51.112;6.776;2024-03-25T07:57:39;11.70;;;5.82;;
19867;SDS011;10096;51.112;6.776;2024-03-25T08:00:06;11.98;;;5.97;;
19867;SDS011;10096;51.112;6.776;2024-03-25T08:02:33;12.00;;;6.30;;
19867;SDS011;10096;51.112;6.776;2024-03-25T08:05:01;15.35;;;7.05;;
19867;SDS011;10096;51.112;6.776;2024-03-25T08:07:34;13.75;;;6.32;;
19867;SDS011;10096;51.112;6.776;2024-03-25T08:10:00;10.35;;;6.65;;
19867;SDS011;10096;51.112;6.776;2024-03-25T08:12:26;13.57;;;6.05;;
19867;SDS011;10096;51.112;6.776;2024-03-25T08:14:54;12.65;;;6.00;;
19867;SDS011;10096;51.112;6.776;2024-03-25T08:17:20;12.07;;;5.70;;
19867;SDS011;10096;51.112;6.776;2024-03-25T08:19:46;14.23;;;5.85;;
19867;SDS011;10096;51.112;6.776;2024-03-25T08:22:15;11.50;;;6.35;;
19867;SDS011;10096;51.112;6.776;2024-03-25T08:24:41;12.63;;;6.25;;
19867;SDS011;10096;51.112;6.776;2024-03-25T08:27:08;14.77;;;6.82;;
19867;SDS011;10096;51.112;6.776;2024-03-25T08:29:36;12.70;;;7.10;;
19867;SDS011;10096;51.112;6.776;2024-03-25T08:32:04;12.55;;;6.88;;
19867;SDS011;10096;51.112;6.776;2024-03-25T08:34:46;10.57;;;6.05;;
19867;SDS011;10096;51.112;6.776;2024-03-25T08:37:16;12.32;;;6.38;;
19867;SDS011;10096;51.112;6.776;2024-03-25T08:39:42;15.25;;;6.50;;
19867;SDS011;10096;51.112;6.776;2024-03-25T08:42:08;9.68;;;5.30;;
19867;SDS011;10096;51.112;6.776;2024-03-25T08:44:35;12.48;;;6.20;;
19867;SDS011;10096;51.112;6.776;2024-03-25T08:47:02;12.43;;;5.35;;
19867;SDS011;10096;51.112;6.776;2024-03-25T08:49:31;11.02;;;5.75;;
19867;SDS011;10096;51.112;6.776;2024-03-25T08:51:59;14.18;;;5.80;;
19867;SDS011;10096;51.112;6.776;2024-03-25T08:54:30;13.95;;;5.20;;
19867;SDS011;10096;51.112;6.776;2024-03-25T08:56:58;12.50;;;5.78;;
19867;SDS011;10096;51.112;6.776;2024-03-25T08:59:25;13.38;;;5.20;;
19867;SDS011;10096;51.112;6.776;2024-03-25T09:02:02;12.75;;;5.25;;
19867;SDS011;10096;51.112;6.776;2024-03-25T09:04:28;11.27;;;5.18;;
19867;SDS011;10096;51.112;6.776;2024-03-25T09:07:03;12.95;;;5.15;;
19867;SDS011;10096;51.112;6.776;2024-03-25T09:09:33;9.20;;;4.60;;
19867;SDS011;10096;51.112;6.776;2024-03-25T09:12:18;12.20;;;4.43;;
19867;SDS011;10096;51.112;6.776;2024-03-25T09:14:44;8.07;;;4.38;;
19867;SDS011;10096;51.112;6.776;2024-03-25T09:17:12;11.20;;;4.47;;
19867;SDS011;10096;51.112;6.776;2024-03-25T09:19:44;9.57;;;4.20;;
19867;SDS011;10096;51.112;6.776;2024-03-25T09:22:13;9.43;;;4.55;;
19867;SDS011;10096;51.112;6.776;2024-03-25T09:24:42;13.05;;;6.55;;
19867;SDS011;10096;51.112;6.776;2024-03-25T09:27:08;12.77;;;4.63;;
19867;SDS011;10096;51.112;6.776;2024-03-25T09:29:34;14.30;;;5.68;;
19867;SDS011;10096;51.112;6.776;2024-03-25T09:32:03;12.13;;;5.07;;
19867;SDS011;10096;51.112;6.776;2024-03-25T09:34:31;10.05;;;5.40;;
19867;SDS011;10096;51.112;6.776;2024-03-25T09:36:57;12.02;;;5.88;;
19867;SDS011;10096;51.112;6.776;2024-03-25T09:39:23;11.30;;;6.60;;
19867;SDS011;10096;51.112;6.776;2024-03-25T09:41:56;19.88;;;14.10;;
19867;SDS011;10096;51.112;6.776;2024-03-25T09:44:26;11.32;;;5.63;;
19867;SDS011;10096;51.112;6.776;2024-03-25T09:46:57;11.50;;;6.32;;
19867;SDS011;10096;51.112;6.776;2024-03-25T09:49:23;10.50;;;6.75;;
19867;SDS011;10096;51.112;6.776;2024-03-25T09:51:54;12.90;;;7.65;;
19867;SDS011;10096;51.112;6.776;2024-03-25T09:54:23;14.85;;;7.55;;
19867;SDS011;10096;51.112;6.776;2024-03-25T09:56:54;11.65;;;7.95;;
19867;SDS011;10096;51.112;6.776;2024-03-25T09:59:21;10.48;;;7.40;;
19867;SDS011;10096;51.112;6.776;2024-03-25T10:01:47;12.63;;;7.65;;
19867;SDS011;10096;51.112;6.776;2024-03-25T10:04:16;11.95;;;6.65;;
19867;SDS011;10096;51.112;6.776;2024-03-25T10:06:42;16.33;;;8.32;;
19867;SDS011;10096;51.112;6.776;2024-03-25T10:09:08;11.82;;;6.57;;
19867;SDS011;10096;51.112;6.776;2024-03-25T10:11:34;11.73;;;6.57;;
19867;SDS011;10096;51.112;6.776;2024-03-25T10:14:03;11.57;;;6.40;;
19867;SDS011;10096;51.112;6.776;2024-03-25T10:16:31;11.18;;;6.95;;
19867;SDS011;10096;51.112;6.776;2024-03-25T10:18:58;8.65;;;5.30;;
19867;SDS011;10096;51.112;6.776;2024-03-25T10:21:24;9.85;;;5.40;;
19867;SDS011;10096;51.112;6.776;2024-03-25T10:23:50;11.50;;;5.63;;
19867;SDS011;10096;51.112;6.776;2024-03-25T10:26:27;13.23;;;6.20;;
19867;SDS011;10096;51.112;6.776;2024-03-25T10:29:01;11.15;;;5.13;;
19867;SDS011;10096;51.112;6.776;2024-03-25T10:31:33;10.38;;;5.55;;
19867;SDS011;10096;51.112;6.776;2024-03-25T10:34:00;9.75;;;5.78;;
19867;SDS011;10096;51.112;6.776;2024-03-25T10:36:35;16.42;;;6.03;;
19867;SDS011;10096;51.112;6.776;2024-03-25T10:39:02;12.73;;;7.68;;
19867;SDS011;10096;51.112;6.776;2024-03-25T10:41:31;13.52;;;6.70;;
19867;SDS011;10096;51.112;6.776;2024-03-25T10:43:59;9.82;;;6.10;;
19867;SDS011;10096;51.112;6.776;2024-03-25T10:46:32;11.15;;;6.80;;
19867;SDS011;10096;51.112;6.776;2024-03-25T10:49:05;11.18;;;6.57;;
19867;SDS011;10096;51.112;6.776;2024-03-25T10:51:37;13.75;;;5.85;;
19867;SDS011;10096;51.112;6.776;2024-03-25T10:54:04;12.40;;;6.00;;
19867;SDS011;10096;51.112;6.776;2024-03-25T10:56:34;11.98;;;5.57;;
19867;SDS011;10096;51.112;6.776;2024-03-25T10:59:04;12.88;;;5.85;;
19867;SDS011;10096;51.112;6.776;2024-03-25T11:01:32;10.75;;;5.60;;
19867;SDS011;10096;51.112;6.776;2024-03-25T11:04:00;10.55;;;5.30;;
19867;SDS011;10096;51.112;6.776;2024-03-25T11:06:26;10.40;;;5.82;;
19867;SDS011;10096;51.112;6.776;2024-03-25T11:08:57;9.82;;;6.13;;
19867;SDS011;10096;51.112;6.776;2024-03-25T11:11:30;10.18;;;5.80;;
19867;SDS011;10096;51.112;6.776;2024-03-25T11:13:57;10.85;;;6.20;;
19867;SDS011;10096;51.112;6.776;2024-03-25T11:16:30;9.68;;;5.57;;
19867;SDS011;10096;51.112;6.776;2024-03-25T11:19:00;9.20;;;5.40;;
19867;SDS011;10096;51.112;6.776;2024-03-25T11:21:27;8.40;;;5.85;;
19867;SDS011;10096;51.112;6.776;2024-03-25T11:23:53;11.27;;;4.60;;
19867;SDS011;10096;51.112;6.776;2024-03-25T11:26:19;6.57;;;4.57;;
19867;SDS011;10096;51.112;6.776;2024-03-25T11:28:46;8.93;;;4.93;;
19867;SDS011;10096;51.112;6.776;2024-03-25T11:31:14;9.27;;;4.90;;
19867;SDS011;10096;51.112;6.776;2024-03-25T11:33:44;10.82;;;4.50;;
19867;SDS011;10096;51.112;6.776;2024-03-25T11:36:10;6.57;;;4.40;;
19867;SDS011;10096;51.112;6.776;2024-03-25T11:38:38;5.53;;;3.85;;
19867;SDS011;10096;51.112;6.776;2024-03-25T11:41:07;8.60;;;5.07;;
19867;SDS011;10096;51.112;6.776;2024-03-25T11:43:36;8.05;;;4.72;;
19867;SDS011;10096;51.112;6.776;2024-03-25T11:46:03;9.18;;;5.20;;
19867;SDS011;10096;51.112;6.776;2024-03-25T11:48:32;7.78;;;4.25;;
19867;SDS011;10096;51.112;6.776;2024-03-25T11:51:01;7.15;;;5.10;;
19867;SDS011;10096;51.112;6.776;2024-03-25T11:53:33;8.50;;;4.70;;
19867;SDS011;10096;51.112;6.776;2024-03-25T11:56:00;8.57;;;3.75;;
19867;SDS011;10096;51.112;6.776;2024-03-25T11:58:26;9.68;;;4.70;;
19867;SDS011;10096;51.112;6.776;2024-03-25T12:00:54;10.07;;;4.65;;
19867;SDS011;10096;51.112;6.776;2024-03-25T12:03:23;9.10;;;4.00;;
19867;SDS011;10096;51.112;6.776;2024-03-25T12:05:52;7.93;;;4.18;;
19867;SDS011;10096;51.112;6.776;2024-03-25T12:08:20;8.18;;;4.70;;
19867;SDS011;10096;51.112;6.776;2024-03-25T12:10:47;5.82;;;3.70;;
19867;SDS011;10096;51.112;6.776;2024-03-25T12:13:31;6.95;;;3.72;;
19867;SDS011;10096;51.112;6.776;2024-03-25T12:15:57;6.25;;;4.90;;
19867;SDS011;10096;51.112;6.776;2024-03-25T12:18:23;6.50;;;3.33;;
19867;SDS011;10096;51.112;6.776;2024-03-25T12:20:49;6.07;;;3.50;;
19867;SDS011;10096;51.112;6.776;2024-03-25T12:23:15;5.47;;;3.28;;
19867;SDS011;10096;51.112;6.776;2024-03-25T12:25:47;4.10;;;3.15;;
19867;SDS011;10096;51.112;6.776;2024-03-25T12:28:14;3.53;;;2.92;;
19867;SDS011;10096;51.112;6.776;2024-03-25T12:30:48;5.13;;;2.90;;
19867;SDS011;10096;51.112;6.776;2024-03-25T12:33:16;7.78;;;3.17;;
19867;SDS011;10096;51.112;6.776;2024-03-25T12:35:45;6.40;;;3.15;;
19867;SDS011;10096;51.112;6.776;2024-03-25T12:38:32;5.03;;;2.15;;
19867;SDS011;10096;51.112;6.776;2024-03-25T12:41:05;5.97;;;2.88;;
19867;SDS011;10096;51.112;6.776;2024-03-25T12:43:33;3.13;;;2.60;;
19867;SDS011;10096;51.112;6.776;2024-03-25T12:46:01;4.47;;;2.40;;
19867;SDS011;10096;51.112;6.776;2024-03-25T12:48:28;3.83;;;2.60;;
19867;SDS011;10096;51.112;6.776;2024-03-25T12:50:54;12.13;;;5.43;;
19867;SDS011;10096;51.112;6.776;2024-03-25T12:53:22;6.53;;;3.00;;
19867;SDS011;10096;51.112;6.776;2024-03-25T12:55:48;5.22;;;2.85;;
19867;SDS011;10096;51.112;6.776;2024-03-25T12:58:16;6.82;;;2.10;;
19867;SDS011;10096;51.112;6.776;2024-03-25T13:00:46;6.20;;;2.67;;
19867;SDS011;10096;51.112;6.776;2024-03-25T13:03:12;5.85;;;2.72;;
19867;SDS011;10096;51.112;6.776;2024-03-25T13:05:40;6.85;;;2.90;;
19867;SDS011;10096;51.112;6.776;2024-03-25T13:08:09;2.78;;;2.35;;
19867;SDS011;10096;51.112;6.776;2024-03-25T13:10:38;5.75;;;2.80;;
19867;SDS011;10096;51.112;6.776;2024-03-25T13:13:04;4.55;;;2.40;;
19867;SDS011;10096;51.112;6.776;2024-03-25T13:15:32;5.28;;;2.60;;
19867;SDS011;10096;51.112;6.776;2024-03-25T13:18:00;4.72;;;2.67;;
19867;SDS011;10096;51.112;6.776;2024-03-25T13:20:26;5.43;;;2.95;;
19867;SDS011;10096;51.112;6.776;2024-03-25T13:22:53;4.45;;;3.10;;
19867;SDS011;10096;51.112;6.776;2024-03-25T13:25:21;3.88;;;2.75;;
19867;SDS011;10096;51.112;6.776;2024-03-25T13:27:47;5.78;;;2.58;;
19867;SDS011;10096;51.112;6.776;2024-03-25T13:30:14;4.15;;;2.67;;
19867;SDS011;10096;51.112;6.776;2024-03-25T13:32:43;4.07;;;2.47;;
19867;SDS011;10096;51.112;6.776;2024-03-25T13:35:09;4.18;;;2.83;;
19867;SDS011;10096;51.112;6.776;2024-03-25T13:37:35;4.00;;;2.70;;
19867;SDS011;10096;51.112;6.776;2024-03-25T13:40:03;3.95;;;2.75;;
19867;SDS011;10096;51.112;6.776;2024-03-25T13:42:31;4.60;;;2.38;;
19867;SDS011;10096;51.112;6.776;2024-03-25T13:44:57;5.03;;;2.92;;
19867;SDS011;10096;51.112;6.776;2024-03-25T13:47:23;5.35;;;2.58;;
19867;SDS011;10096;51.112;6.776;2024-03-25T13:49:51;5.35;;;2.72;;
19867;SDS011;10096;51.112;6.776;2024-03-25T13:52:27;4.72;;;2.55;;
19867;SDS011;10096;51.112;6.776;2024-03-25T13:55:01;5.90;;;2.80;;
19867;SDS011;10096;51.112;6.776;2024-03-25T13:57:32;6.00;;;2.40;;
19867;SDS011;10096;51.112;6.776;2024-03-25T13:59:57;4.35;;;3.25;;
19867;SDS011;10096;51.112;6.776;2024-03-25T14:02:23;4.85;;;3.22;;
19867;SDS011;10096;51.112;6.776;2024-03-25T14:04:52;4.28;;;3.00;;
19867;SDS011;10096;51.112;6.776;2024-03-25T14:07:17;3.00;;;2.67;;
19867;SDS011;10096;51.112;6.776;2024-03-25T14:09:44;5.88;;;3.45;;
19867;SDS011;10096;51.112;6.776;2024-03-25T14:12:12;4.40;;;3.38;;
19867;SDS011;10096;51.112;6.776;2024-03-25T14:14:38;5.13;;;3.15;;
19867;SDS011;10096;51.112;6.776;2024-03-25T14:17:06;4.55;;;2.85;;
19867;SDS011;10096;51.112;6.776;2024-03-25T14:19:36;4.28;;;2.88;;
19867;SDS011;10096;51.112;6.776;2024-03-25T14:22:08;5.72;;;3.40;;
19867;SDS011;10096;51.112;6.776;2024-03-25T14:24:38;6.80;;;3.10;;
19867;SDS011;10096;51.112;6.776;2024-03-25T14:27:05;6.65;;;4.63;;
19867;SDS011;10096;51.112;6.776;2024-03-25T14:29:32;4.93;;;3.05;;
19867;SDS011;10096;51.112;6.776;2024-03-25T14:32:00;6.22;;;3.58;;
19867;SDS011;10096;51.112;6.776;2024-03-25T14:34:31;5.45;;;3.28;;
19867;SDS011;10096;51.112;6.776;2024-03-25T14:36:57;6.15;;;3.45;;
19867;SDS011;10096;51.112;6.776;2024-03-25T14:39:25;5.45;;;3.58;;
19867;SDS011;10096;51.112;6.776;2024-03-25T14:41:53;4.40;;;3.15;;
19867;SDS011;10096;51.112;6.776;2024-03-25T14:44:20;5.47;;;3.65;;
19867;SDS011;10096;51.112;6.776;2024-03-25T14:46:49;4.65;;;3.33;;
19867;SDS011;10096;51.112;6.776;2024-03-25T14:49:18;6.18;;;3.30;;
19867;SDS011;10096;51.112;6.776;2024-03-25T14:51:48;7.20;;;3.75;;